Time;durP1;ratioP1;P1;durP2;ratioP2;P2;SDS_P1;SDS_P2;PMS_P1;PMS_P2;Temp;Humidity;BMP_temperature;BMP_pressure;BME280_temperature;BME280_humidity;BME280_pressure;Samples;Min_cycle;Max_cycle;Signal;HPM_P1;HPM_P2
2022/06/10 00:01:00;;;;;;;4.93;2.58;;;29.70;94.40;;;;;;4106704;28;20054;-70
2022/06/10 00:03:07;;;;;;;5.80;2.25;;;29.70;94.50;;;;;;4146103;28;20566;-69
2022/06/10 00:05:14;;;;;;;4.72;2.08;;;29.80;94.20;;;;;;4151671;28;20435;-69
2022/06/10 00:07:21;;;;;;;5.88;1.88;;;29.80;94.10;;;;;;4156688;28;20054;-69
2022/06/10 00:09:25;;;;;;;4.88;2.05;;;29.90;94.00;;;;;;4174230;28;20499;-69
2022/06/10 00:11:29;;;;;;;4.40;2.08;;;30.00;94.00;;;;;;4155516;28;20049;-69
2022/06/10 00:13:38;;;;;;;5.63;2.45;;;30.00;94.00;;;;;;4124395;28;20917;-70
2022/06/10 00:15:44;;;;;;;4.88;2.33;;;30.10;94.30;;;;;;4171452;28;20095;-69
2022/06/10 00:17:49;;;;;;;5.18;2.58;;;30.10;94.00;;;;;;4173055;28;20079;-69
2022/06/10 00:19:55;;;;;;;4.40;2.30;;;30.20;94.10;;;;;;4173373;28;20139;-70
2022/06/10 00:22:02;;;;;;;5.30;2.10;;;30.30;94.10;;;;;;4173883;28;20057;-69
2022/06/10 00:24:08;;;;;;;4.82;2.22;;;30.30;93.90;;;;;;4155369;28;20148;-70
2022/06/10 00:26:15;;;;;;;4.93;2.13;;;30.30;94.00;;;;;;4156599;28;20057;-70
2022/06/10 00:28:26;;;;;;;4.88;2.00;;;30.40;93.90;;;;;;4140512;28;20079;-70
2022/06/10 00:30:30;;;;;;;4.78;2.00;;;30.40;93.50;;;;;;4155517;28;20543;-69
2022/06/10 00:32:36;;;;;;;4.35;1.88;;;30.40;93.50;;;;;;4157348;28;20053;-70
2022/06/10 00:34:42;;;;;;;9.70;2.42;;;30.40;93.60;;;;;;4139363;28;20054;-70
2022/06/10 00:36:47;;;;;;;5.53;2.42;;;30.50;93.60;;;;;;4155618;28;20504;-69
2022/06/10 00:38:53;;;;;;;4.05;2.35;;;30.60;93.70;;;;;;4154628;28;20053;-69
2022/06/10 00:41:00;;;;;;;6.30;2.17;;;30.60;93.60;;;;;;4162459;28;20049;-69
2022/06/10 00:43:05;;;;;;;4.72;2.20;;;30.50;93.60;;;;;;4171420;28;20049;-69
2022/06/10 00:45:43;;;;;;;5.75;2.20;;;30.40;93.30;;;;;;4187820;28;20078;-69
2022/06/10 00:47:49;;;;;;;5.40;2.30;;;30.60;93.40;;;;;;4140205;28;20041;-69
2022/06/10 00:49:57;;;;;;;4.47;2.35;;;30.60;93.60;;;;;;4137913;28;20049;-69
2022/06/10 00:52:08;;;;;;;;;;;30.70;93.50;;;;;;4167989;28;20075;-70
2022/06/10 00:54:28;;;;;;;8.30;2.50;;;30.70;93.20;;;;;;4155412;28;19947;-69
2022/06/10 00:56:32;;;;;;;6.72;2.75;;;30.80;93.50;;;;;;4164694;28;20586;-69
2022/06/10 00:58:40;;;;;;;4.60;2.90;;;30.80;93.20;;;;;;4153607;28;20069;-69
2022/06/10 01:02:15;;;;;;;6.57;3.10;;;30.70;92.60;;;;;;4152478;28;21026;-68
2022/06/10 01:04:21;;;;;;;4.35;2.42;;;30.70;92.90;;;;;;4154434;28;20823;-69
2022/06/10 01:06:26;;;;;;;7.45;2.38;;;30.80;93.10;;;;;;4150890;28;20049;-68
2022/06/10 01:08:33;;;;;;;8.77;2.63;;;30.80;93.10;;;;;;4152412;28;20053;-67
2022/06/10 01:10:50;;;;;;;9.93;3.10;;;31.00;93.20;;;;;;4151484;28;20156;-68
2022/06/10 01:13:14;;;;;;;6.97;3.10;;;31.00;93.20;;;;;;4135997;28;20050;-67
2022/06/10 01:15:37;;;;;;;5.90;2.63;;;31.00;93.10;;;;;;4137908;28;20078;-67
2022/06/10 01:17:48;;;;;;;7.63;2.45;;;31.10;93.10;;;;;;4164948;28;20140;-67
2022/06/10 01:20:23;;;;;;;7.05;2.72;;;31.10;93.10;;;;;;4152863;28;20141;-67
2022/06/10 01:22:43;;;;;;;4.75;2.33;;;31.20;93.10;;;;;;4152636;28;20050;-67
2022/06/10 01:25:07;;;;;;;5.60;2.35;;;31.20;93.30;;;;;;4120450;28;20161;-68
2022/06/10 01:30:13;;;;;;;5.15;2.47;;;31.30;93.10;;;;;;4153934;28;20054;-67
2022/06/10 01:32:35;;;;;;;7.22;2.85;;;31.20;93.30;;;;;;4137437;28;20606;-67
2022/06/10 01:34:50;;;;;;;4.53;2.72;;;31.20;93.20;;;;;;4168880;28;20057;-66
2022/06/10 01:37:11;;;;;;;3.85;2.28;;;31.30;93.10;;;;;;4153167;28;20060;-67
2022/06/10 01:39:39;;;;;;;8.48;2.47;;;31.30;93.00;;;;;;4154055;28;20054;-67
2022/06/10 01:42:02;;;;;;;5.35;2.65;;;31.40;93.10;;;;;;4137710;28;20062;-68
2022/06/10 01:44:15;;;;;;;6.03;2.47;;;31.50;93.00;;;;;;4153237;28;20045;-68
2022/06/10 01:46:33;;;;;;;5.65;2.08;;;31.50;92.90;;;;;;4154196;28;20053;-68
2022/06/10 01:48:57;;;;;;;5.18;2.00;;;31.50;92.80;;;;;;4152982;28;20060;-67
2022/06/10 01:51:36;;;;;;;5.88;2.88;;;31.60;92.70;;;;;;4153280;28;20046;-67
2022/06/10 01:54:05;;;;;;;5.00;2.47;;;31.70;92.70;;;;;;4136190;28;20058;-67
2022/06/10 01:56:34;;;;;;;6.80;3.40;;;31.70;92.60;;;;;;4149757;28;20564;-68
2022/06/10 01:58:45;;;;;;;7.03;3.63;;;31.80;92.60;;;;;;4150481;28;20085;-68
2022/06/10 02:00:57;;;;;;;5.45;3.20;;;31.80;92.70;;;;;;4152287;28;20104;-68
2022/06/10 02:03:22;;;;;;;6.00;2.70;;;31.90;92.60;;;;;;4144293;28;20162;-67
2022/06/10 02:05:31;;;;;;;7.07;3.55;;;31.90;92.50;;;;;;4160646;28;20053;-67
2022/06/10 02:07:46;;;;;;;10.93;4.38;;;31.90;92.20;;;;;;4133778;28;20058;-68
2022/06/10 02:10:00;;;;;;;7.90;3.00;;;31.90;92.30;;;;;;4150809;28;20054;-68
2022/06/10 02:12:11;;;;;;;7.60;2.80;;;31.90;92.30;;;;;;4132788;28;20590;-67
2022/06/10 02:14:37;;;;;;;7.03;3.30;;;31.90;92.40;;;;;;4142682;28;20492;-68
2022/06/10 02:16:46;;;;;;;6.85;3.50;;;31.90;92.50;;;;;;4156187;28;20048;-68
2022/06/10 02:19:04;;;;;;;9.75;5.28;;;32.00;92.60;;;;;;4126396;28;20046;-67
2022/06/10 02:21:29;;;;;;;5.82;3.42;;;32.10;92.40;;;;;;4139589;28;20058;-67
2022/06/10 02:23:43;;;;;;;8.13;3.45;;;32.10;92.30;;;;;;4150432;28;20049;-67
2022/06/10 02:25:58;;;;;;;5.82;2.78;;;32.10;92.20;;;;;;4140951;28;20582;-67
2022/06/10 02:28:07;;;;;;;4.53;2.63;;;32.20;92.30;;;;;;4136853;28;20061;-67
2022/06/10 02:30:44;;;;;;;6.28;3.45;;;32.30;92.20;;;;;;4140244;28;20141;-68
2022/06/10 02:32:56;;;;;;;6.15;3.25;;;32.30;92.10;;;;;;4140753;28;20061;-68
2022/06/10 02:35:06;;;;;;;6.45;2.50;;;32.40;92.10;;;;;;4141632;28;20058;-68
2022/06/10 02:37:18;;;;;;;7.88;2.83;;;32.40;91.90;;;;;;4125609;28;20054;-68
2022/06/10 02:39:32;;;;;;;5.50;2.55;;;32.40;91.60;;;;;;4140663;28;20077;-68
2022/06/10 02:41:50;;;;;;;5.90;2.60;;;32.40;91.80;;;;;;4142171;28;20385;-68
2022/06/10 02:44:28;;;;;;;4.45;2.30;;;32.60;91.90;;;;;;4141899;28;20108;-68
2022/06/10 02:46:57;;;;;;;6.95;2.22;;;32.60;91.90;;;;;;4129354;28;20104;-67
2022/06/10 02:49:16;;;;;;;7.40;2.30;;;32.70;91.50;;;;;;4131278;28;20073;-68
2022/06/10 02:51:31;;;;;;;4.80;2.20;;;32.70;92.00;;;;;;4134091;28;20656;-68
2022/06/10 02:53:49;;;;;;;6.22;2.13;;;32.80;91.70;;;;;;4153671;28;20095;-68
2022/06/10 02:56:25;;;;;;;3.88;1.88;;;32.80;90.80;;;;;;4125257;28;20505;-68
2022/06/10 03:01:13;;;;;;;4.90;1.90;;;32.80;91.00;;;;;;4155332;28;20061;-68
2022/06/10 03:03:43;;;;;;;7.18;2.53;;;32.80;90.50;;;;;;4154002;28;20096;-68
2022/06/10 03:06:13;;;;;;;6.82;2.33;;;32.70;90.80;;;;;;4145861;28;20145;-68
2022/06/10 03:08:26;;;;;;;4.72;1.90;;;32.70;90.70;;;;;;4144473;28;20606;-68
2022/06/10 03:10:43;;;;;;;4.03;2.20;;;32.70;90.80;;;;;;4160579;28;20045;-68
2022/06/10 03:13:03;;;;;;;6.50;1.95;;;32.80;91.10;;;;;;4159157;28;20143;-68
2022/06/10 03:15:35;;;;;;;6.50;2.40;;;33.00;91.40;;;;;;4160611;28;20087;-68
2022/06/10 03:17:54;;;;;;;7.95;2.10;;;33.10;91.10;;;;;;4144107;28;20084;-68
2022/06/10 03:20:13;;;;;;;4.60;2.33;;;33.20;90.80;;;;;;4160901;28;20152;-69
2022/06/10 03:22:50;;;;;;;5.30;2.42;;;33.30;90.90;;;;;;4159792;28;20061;-68
2022/06/10 03:25:12;;;;;;;3.88;2.35;;;33.30;90.60;;;;;;4159861;28;20041;-68
2022/06/10 03:27:22;;;;;;;7.15;2.30;;;33.30;90.30;;;;;;4131665;28;20089;-69
2022/06/10 03:29:43;;;;;;;4.85;2.30;;;33.40;90.80;;;;;;4096326;29;20047;-67
2022/06/10 03:31:57;;;;;;;6.60;2.20;;;33.50;90.30;;;;;;4130279;28;20065;-68
2022/06/10 03:34:11;;;;;;;8.05;2.40;;;33.50;90.30;;;;;;4144709;28;20120;-68
2022/06/10 03:36:20;;;;;;;8.18;2.40;;;33.60;90.40;;;;;;4146263;28;20522;-67
2022/06/10 03:38:25;;;;;;;5.38;2.15;;;33.60;90.70;;;;;;4145145;28;20049;-67
2022/06/10 03:40:35;;;;;;;5.13;2.53;;;33.70;90.50;;;;;;4147117;28;20070;-69
2022/06/10 03:42:51;;;;;;;5.00;2.50;;;33.70;90.20;;;;;;4117439;28;20181;-67
2022/06/10 03:45:19;;;;;;;6.18;2.75;;;33.70;90.10;;;;;;4144601;28;20136;-68
2022/06/10 03:47:27;;;;;;;5.78;2.40;;;33.60;88.90;;;;;;4133464;28;20671;-68
2022/06/10 03:49:59;;;;;;;6.07;2.22;;;33.50;89.40;;;;;;4089843;28;20830;-68
2022/06/10 03:52:08;;;;;;;;;;;33.60;90.00;;;;;;4151718;28;20054;-68
2022/06/10 03:54:18;;;;;;;6.93;2.40;;;33.70;89.30;;;;;;4138354;28;19951;-68
2022/06/10 03:56:28;;;;;;;6.05;2.50;;;33.70;89.90;;;;;;4155625;28;20797;-68
2022/06/10 03:58:36;;;;;;;6.07;2.28;;;33.80;89.10;;;;;;4140297;28;20536;-68
2022/06/10 04:00:45;;;;;;;6.43;2.55;;;33.80;89.30;;;;;;4139672;28;20104;-68
2022/06/10 04:02:58;;;;;;;4.88;2.65;;;34.00;89.40;;;;;;4137975;28;20069;-68
2022/06/10 04:05:07;;;;;;;6.95;2.85;;;33.90;89.50;;;;;;4148338;28;20054;-68
2022/06/10 04:07:21;;;;;;;6.53;2.50;;;34.10;89.80;;;;;;4129056;28;20033;-68
2022/06/10 04:09:30;;;;;;;5.38;2.50;;;34.00;89.30;;;;;;4121246;28;20489;-67
2022/06/10 04:11:35;;;;;;;6.07;2.67;;;34.00;88.90;;;;;;4149184;28;20419;-68
2022/06/10 04:13:45;;;;;;;7.40;3.17;;;34.00;89.50;;;;;;4138863;28;20059;-68
2022/06/10 04:15:55;;;;;;;6.60;2.58;;;34.10;90.00;;;;;;4122694;28;20046;-68
2022/06/10 04:18:05;;;;;;;5.80;2.70;;;34.20;89.40;;;;;;4140494;28;20064;-68
2022/06/10 04:20:28;;;;;;;6.75;2.40;;;34.30;89.40;;;;;;4138869;28;20053;-68
2022/06/10 04:22:37;;;;;;;7.43;2.90;;;34.40;89.40;;;;;;4133665;28;20401;-69
2022/06/10 04:24:42;;;;;;;6.18;2.60;;;34.20;88.80;;;;;;4152070;28;20384;-68
2022/06/10 04:26:52;;;;;;;6.30;2.50;;;34.10;88.40;;;;;;4144777;28;20068;-68
2022/06/10 04:29:03;;;;;;;6.30;2.65;;;33.90;88.60;;;;;;4140184;28;20169;-67
2022/06/10 04:31:09;;;;;;;6.45;2.45;;;34.10;88.40;;;;;;4142641;28;21154;-68
2022/06/10 04:33:18;;;;;;;4.97;2.50;;;34.10;88.70;;;;;;4139736;28;20052;-67
2022/06/10 04:35:38;;;;;;;;;;;34.10;88.60;;;;;;4105765;28;20133;-68
2022/06/10 04:37:56;;;;;;;7.30;3.17;;;34.20;89.10;;;;;;4123500;28;19931;-68
2022/06/10 04:40:10;;;;;;;6.50;2.63;;;34.40;88.10;;;;;;4141628;28;20132;-67
2022/06/10 04:42:16;;;;;;;7.13;2.70;;;34.40;88.10;;;;;;4138055;28;20153;-67
2022/06/10 04:44:21;;;;;;;6.60;2.45;;;34.50;87.40;;;;;;4139510;28;20814;-67
2022/06/10 04:46:31;;;;;;;5.75;2.55;;;34.60;87.50;;;;;;4127343;28;20054;-67
2022/06/10 04:48:35;;;;;;;4.45;2.40;;;34.60;87.80;;;;;;4138198;28;20045;-67
2022/06/10 04:50:40;;;;;;;7.03;3.10;;;34.60;88.00;;;;;;4121652;28;20050;-67
2022/06/10 04:52:47;;;;;;;4.07;2.40;;;34.80;88.20;;;;;;4138650;28;20084;-67
2022/06/10 04:54:54;;;;;;;5.65;2.85;;;34.90;88.70;;;;;;4138395;28;20156;-67
2022/06/10 04:57:02;;;;;;;7.60;2.90;;;34.70;88.50;;;;;;4146511;28;20523;-67
2022/06/10 04:59:09;;;;;;;8.05;2.72;;;34.40;89.00;;;;;;4139378;28;20064;-67
2022/06/10 05:01:17;;;;;;;6.20;2.85;;;34.70;88.80;;;;;;4137915;28;20057;-67
2022/06/10 05:03:27;;;;;;;9.13;2.88;;;34.60;87.30;;;;;;4123862;28;20125;-67
2022/06/10 05:05:34;;;;;;;10.48;3.70;;;34.70;87.80;;;;;;4108241;28;20082;-67
2022/06/10 05:07:41;;;;;;;7.68;3.63;;;35.00;88.40;;;;;;4139345;28;20133;-67
2022/06/10 05:09:46;;;;;;;8.55;3.15;;;35.20;88.60;;;;;;4137894;28;20534;-68
2022/06/10 05:11:52;;;;;;;6.15;2.80;;;35.40;87.80;;;;;;4139083;28;20464;-67
2022/06/10 05:13:57;;;;;;;8.82;2.95;;;35.50;87.30;;;;;;4138935;28;20132;-68
2022/06/10 05:16:02;;;;;;;5.53;2.78;;;35.70;87.80;;;;;;4137939;28;20050;-67
2022/06/10 05:18:07;;;;;;;14.60;8.27;;;35.80;87.20;;;;;;4138686;28;20453;-68
2022/06/10 05:20:23;;;;;;;15.52;11.68;;;35.90;86.30;;;;;;4137690;28;20077;-67
2022/06/10 05:22:29;;;;;;;9.63;6.70;;;35.90;85.80;;;;;;4106532;28;20086;-68
2022/06/10 05:24:36;;;;;;;5.43;3.47;;;36.00;85.70;;;;;;4124108;28;20513;-67
2022/06/10 05:26:42;;;;;;;5.43;3.20;;;36.00;85.10;;;;;;4132621;28;20479;-67
2022/06/10 05:28:51;;;;;;;7.70;2.85;;;36.00;85.40;;;;;;4122489;28;20054;-68
2022/06/10 05:31:01;;;;;;;6.97;2.85;;;36.10;85.60;;;;;;4136924;28;20084;-67
2022/06/10 05:33:12;;;;;;;5.20;2.90;;;36.20;85.30;;;;;;4139032;28;20054;-67
2022/06/10 05:35:22;;;;;;;9.18;3.10;;;36.30;84.80;;;;;;4139039;28;20570;-68
2022/06/10 05:37:30;;;;;;;6.93;2.80;;;36.30;84.00;;;;;;4138387;28;20160;-67
2022/06/10 05:39:42;;;;;;;4.28;2.30;;;36.30;83.30;;;;;;4122601;28;20089;-67
2022/06/10 05:44:09;;;;;;;6.82;2.50;;;36.40;83.10;;;;;;4139405;28;20042;-67
2022/06/10 05:46:22;;;;;;;5.90;2.75;;;36.50;83.40;;;;;;4123020;28;20065;-68
2022/06/10 05:48:47;;;;;;;7.20;2.90;;;36.50;83.70;;;;;;4141695;28;20088;-67
2022/06/10 05:51:05;;;;;;;6.25;2.83;;;36.10;84.10;;;;;;4141916;28;20046;-67
2022/06/10 05:53:31;;;;;;;10.07;2.92;;;35.80;83.90;;;;;;4124524;28;20145;-67
2022/06/10 05:55:42;;;;;;;6.15;2.63;;;35.90;82.60;;;;;;4139540;28;20057;-67
2022/06/10 05:57:52;;;;;;;29.83;22.40;;;35.80;83.70;;;;;;4137576;28;20485;-67
2022/06/10 06:00:01;;;;;;;20.23;13.50;;;36.00;84.50;;;;;;4126579;28;20796;-67
2022/06/10 06:02:26;;;;;;;11.10;6.47;;;36.20;84.10;;;;;;4146607;28;20124;-67
2022/06/10 06:04:47;;;;;;;7.32;3.72;;;36.20;83.80;;;;;;4158281;28;20637;-67
2022/06/10 06:06:56;;;;;;;7.13;3.80;;;36.50;84.00;;;;;;4159137;28;20053;-67
2022/06/10 06:09:04;;;;;;;8.82;3.50;;;36.50;84.10;;;;;;4143160;28;20046;-67
2022/06/10 06:11:18;;;;;;;5.28;2.53;;;36.30;83.00;;;;;;4145133;28;20045;-68
2022/06/10 06:13:28;;;;;;;6.47;3.30;;;36.30;82.80;;;;;;4148926;28;20613;-68
2022/06/10 06:15:33;;;;;;;7.05;3.80;;;36.30;83.60;;;;;;4141293;28;20156;-68
2022/06/10 06:17:41;;;;;;;9.02;3.70;;;36.30;83.50;;;;;;4139757;28;20084;-68
2022/06/10 06:19:52;;;;;;;7.35;3.35;;;36.60;83.80;;;;;;4141796;28;20480;-68
2022/06/10 06:21:57;;;;;;;7.05;3.42;;;36.70;83.00;;;;;;4141123;28;20049;-68
2022/06/10 06:24:02;;;;;;;6.80;2.72;;;36.80;82.70;;;;;;4133796;28;20050;-68
2022/06/10 06:26:07;;;;;;;8.23;3.28;;;36.80;82.80;;;;;;4141248;28;20104;-68
2022/06/10 06:28:14;;;;;;;8.88;2.80;;;36.90;82.70;;;;;;4155839;28;20503;-68
2022/06/10 06:30:31;;;;;;;8.77;3.53;;;36.90;82.10;;;;;;4141648;28;20128;-68
2022/06/10 06:32:38;;;;;;;8.52;3.40;;;37.00;81.60;;;;;;4104111;28;20059;-67
2022/06/10 06:34:44;;;;;;;7.13;3.22;;;37.20;81.50;;;;;;4154256;28;20064;-68
2022/06/10 06:37:00;;;;;;;8.13;3.00;;;36.80;79.60;;;;;;4159074;28;20045;-68
2022/06/10 06:39:07;;;;;;;7.95;3.35;;;36.50;80.90;;;;;;4122771;28;20074;-67
2022/06/10 06:41:22;;;;;;;13.50;3.72;;;36.60;80.80;;;;;;4171828;28;20110;-67
2022/06/10 06:43:26;;;;;;;6.57;3.58;;;36.70;79.60;;;;;;4141454;28;20046;-68
2022/06/10 06:45:40;;;;;;;6.88;3.50;;;36.60;80.70;;;;;;4146581;28;20049;-67
2022/06/10 06:47:53;;;;;;;5.78;3.13;;;36.60;81.30;;;;;;4125687;28;20129;-67
2022/06/10 06:50:01;;;;;;;6.82;3.20;;;36.50;81.80;;;;;;4141740;28;20105;-68
2022/06/10 06:52:09;;;;;;;6.65;2.63;;;36.50;81.50;;;;;;4142627;28;20046;-68
2022/06/10 06:54:14;;;;;;;9.07;3.50;;;36.30;81.30;;;;;;4141633;28;20072;-67
2022/06/10 06:56:23;;;;;;;6.05;2.85;;;36.60;81.10;;;;;;4154542;28;20038;-68
2022/06/10 06:58:29;;;;;;;5.65;2.80;;;36.40;80.70;;;;;;4142081;28;20072;-68
2022/06/10 07:00:34;;;;;;;5.72;2.83;;;36.50;81.00;;;;;;4139352;28;20564;-67
2022/06/10 07:02:41;;;;;;;9.07;3.03;;;36.70;80.00;;;;;;4124141;28;20042;-68
2022/06/10 07:04:48;;;;;;;8.77;2.50;;;36.60;79.80;;;;;;4135545;28;20054;-68
2022/06/10 07:06:53;;;;;;;6.65;3.20;;;36.60;80.10;;;;;;4140939;28;20042;-68
2022/06/10 07:09:03;;;;;;;6.85;3.15;;;36.70;79.90;;;;;;4140837;28;20081;-68
2022/06/10 07:11:11;;;;;;;6.55;3.22;;;36.70;80.20;;;;;;4146471;28;20042;-68
2022/06/10 07:13:18;;;;;;;9.13;3.33;;;36.50;80.30;;;;;;4141356;28;20132;-68
2022/06/10 07:15:25;;;;;;;6.47;2.70;;;36.30;80.80;;;;;;4139894;28;20485;-67
2022/06/10 07:17:32;;;;;;;7.20;3.38;;;36.30;81.30;;;;;;4155883;28;20153;-68
2022/06/10 07:19:38;;;;;;;8.55;3.22;;;36.30;80.80;;;;;;4139898;28;20077;-68
2022/06/10 07:21:47;;;;;;;6.07;2.63;;;36.20;81.50;;;;;;4154950;28;20053;-68
2022/06/10 07:23:57;;;;;;;;;;;36.10;81.70;;;;;;4157722;28;20045;-68
2022/06/10 07:26:05;;;;;;;5.32;3.10;;;36.00;82.50;;;;;;4147993;28;19925;-68
2022/06/10 07:28:15;;;;;;;5.55;2.88;;;36.10;82.90;;;;;;4124486;28;20042;-68
2022/06/10 07:30:27;;;;;;;7.72;2.83;;;35.90;83.90;;;;;;4140491;28;20508;-68
2022/06/10 07:32:31;;;;;;;8.15;3.40;;;35.80;84.10;;;;;;4133855;28;20060;-66
2022/06/10 07:34:40;;;;;;;9.45;3.92;;;35.90;84.10;;;;;;4155779;28;20073;-66
2022/06/10 07:36:52;;;;;;;9.63;3.88;;;35.80;84.60;;;;;;4109073;28;20141;-66
2022/06/10 07:38:59;;;;;;;6.07;3.72;;;35.80;83.90;;;;;;4124880;28;20057;-66
2022/06/10 07:43:32;;;;;;;10.50;4.20;;;35.70;85.30;;;;;;4140651;28;20133;-66
2022/06/10 07:45:40;;;;;;;8.38;4.22;;;35.60;84.60;;;;;;4122051;28;20050;-67
2022/06/10 07:48:00;;;;;;;8.00;3.50;;;35.70;85.40;;;;;;4153783;28;20492;-67
2022/06/10 07:50:11;;;;;;;10.50;3.92;;;35.80;84.90;;;;;;4140386;28;20049;-67
2022/06/10 07:52:18;;;;;;;12.27;4.47;;;35.80;84.10;;;;;;4139487;28;20781;-67
2022/06/10 07:54:27;;;;;;;10.70;4.78;;;35.20;85.50;;;;;;4135706;28;20038;-67
2022/06/10 07:56:34;;;;;;;10.48;3.78;;;34.90;86.60;;;;;;4132609;28;20385;-67
2022/06/10 07:59:00;;;;;;;9.23;3.92;;;34.90;86.80;;;;;;4140144;28;20452;-67
2022/06/10 08:01:06;;;;;;;7.60;4.18;;;34.70;86.60;;;;;;4145963;28;20057;-67
2022/06/10 08:03:18;;;;;;;6.97;4.10;;;34.60;86.90;;;;;;4140104;28;20417;-68
2022/06/10 08:05:23;;;;;;;12.70;4.97;;;34.40;87.20;;;;;;4130478;28;20082;-68
2022/06/10 08:07:30;;;;;;;30.35;18.75;;;34.40;87.00;;;;;;4133798;28;20451;-68
2022/06/10 08:09:38;;;;;;;12.70;8.02;;;34.60;87.30;;;;;;4123533;28;20046;-68
2022/06/10 08:11:43;;;;;;;12.52;6.05;;;34.80;87.50;;;;;;4122117;28;20166;-68
2022/06/10 08:13:50;;;;;;;7.50;3.97;;;34.70;86.80;;;;;;4122625;28;20468;-68
2022/06/10 08:15:57;;;;;;;7.28;3.58;;;34.80;86.00;;;;;;4139027;28;20946;-69
2022/06/10 08:18:17;;;;;;;9.40;3.80;;;34.80;86.10;;;;;;4136594;28;20101;-68
2022/06/10 08:22:49;;;;;;;5.63;3.22;;;35.10;84.50;;;;;;4140509;28;20061;-68
2022/06/10 08:24:54;;;;;;;9.48;5.63;;;35.30;84.40;;;;;;4138414;28;20861;-69
2022/06/10 08:27:01;;;;;;;10.77;5.68;;;35.40;84.90;;;;;;4144565;28;20052;-68
2022/06/10 08:29:08;;;;;;;6.40;4.00;;;35.50;84.60;;;;;;4121598;28;20053;-69
2022/06/10 08:31:12;;;;;;;9.93;3.97;;;35.70;83.80;;;;;;4138732;28;20052;-67
2022/06/10 08:33:20;;;;;;;8.65;3.88;;;35.80;83.40;;;;;;4138296;28;20053;-69
2022/06/10 08:35:25;;;;;;;7.43;4.00;;;35.90;82.40;;;;;;4151385;28;20045;-68
2022/06/10 08:37:30;;;;;;;7.68;3.97;;;35.80;81.70;;;;;;4154161;28;20067;-68
2022/06/10 08:39:36;;;;;;;10.05;6.03;;;35.80;81.90;;;;;;4135639;28;20057;-69
2022/06/10 08:41:46;;;;;;;10.75;4.82;;;35.70;82.30;;;;;;4088957;28;20075;-67
2022/06/10 08:43:54;;;;;;;9.15;4.63;;;35.50;82.40;;;;;;4138335;28;20129;-68
2022/06/10 08:46:06;;;;;;;17.23;7.90;;;35.70;81.80;;;;;;4146882;28;20466;-69
2022/06/10 08:48:44;;;;;;;14.13;7.28;;;35.80;82.00;;;;;;4126448;28;20054;-68
2022/06/10 08:51:04;;;;;;;9.93;4.35;;;35.90;82.20;;;;;;4154998;28;20051;-68
2022/06/10 08:53:17;;;;;;;7.35;3.28;;;35.90;81.60;;;;;;4123407;28;20078;-68
2022/06/10 08:55:45;;;;;;;8.50;2.65;;;35.80;81.10;;;;;;4120393;28;20086;-67
2022/06/10 08:57:50;;;;;;;;;;;35.80;81.20;;;;;;4142303;28;20053;-67
2022/06/10 08:59:56;;;;;;;6.60;2.40;;;35.80;80.80;;;;;;4128065;28;19932;-68
2022/06/10 09:02:10;;;;;;;7.10;3.20;;;35.80;81.10;;;;;;4145738;28;20068;-68
2022/06/10 09:04:20;;;;;;;5.75;2.78;;;35.80;81.00;;;;;;4145541;28;20153;-68
2022/06/10 09:06:31;;;;;;;5.40;3.13;;;35.70;81.10;;;;;;4144346;28;20125;-67
2022/06/10 09:08:44;;;;;;;6.88;3.40;;;35.70;81.90;;;;;;4143929;28;20089;-67
2022/06/10 09:10:56;;;;;;;9.27;4.03;;;35.80;81.90;;;;;;4144988;28;20088;-69
2022/06/10 09:13:10;;;;;;;8.10;3.47;;;35.60;81.30;;;;;;4145571;28;20081;-69
2022/06/10 09:15:18;;;;;;;9.98;3.20;;;35.60;81.60;;;;;;4144242;28;20493;-69
2022/06/10 09:17:34;;;;;;;9.43;3.40;;;35.70;81.80;;;;;;4144577;28;20053;-69
2022/06/10 09:20:03;;;;;;;7.55;3.05;;;35.70;81.20;;;;;;4144491;28;20041;-69
2022/06/10 09:22:21;;;;;;;6.82;3.33;;;35.50;80.40;;;;;;4095069;28;20062;-68
2022/06/10 09:24:42;;;;;;;7.88;4.55;;;35.40;81.60;;;;;;4132562;28;20045;-69
2022/06/10 09:27:01;;;;;;;8.85;4.82;;;35.50;81.60;;;;;;4132069;28;20108;-69
2022/06/10 09:29:08;;;;;;;11.27;3.95;;;35.50;81.40;;;;;;4148186;28;20092;-68
2022/06/10 09:31:37;;;;;;;10.50;3.53;;;35.50;81.90;;;;;;4148808;28;20062;-69
2022/06/10 09:34:04;;;;;;;7.25;3.63;;;35.50;81.70;;;;;;4131265;28;20504;-69
2022/06/10 09:36:13;;;;;;;7.55;3.40;;;35.60;81.70;;;;;;4113696;28;20070;-69
2022/06/10 09:38:37;;;;;;;8.05;3.63;;;35.60;82.10;;;;;;4132127;28;20042;-69
2022/06/10 09:40:50;;;;;;;8.10;2.85;;;35.60;82.60;;;;;;4145307;28;20555;-69
2022/06/10 09:43:20;;;;;;;7.47;2.85;;;35.50;82.50;;;;;;4147228;28;20140;-69
2022/06/10 09:45:36;;;;;;;9.40;3.33;;;35.50;82.60;;;;;;4147225;28;20049;-69
2022/06/10 09:47:45;;;;;;;10.32;4.25;;;35.50;82.90;;;;;;4147305;28;20050;-68
2022/06/10 09:50:09;;;;;;;9.52;3.97;;;35.40;83.10;;;;;;4147304;28;20070;-69
2022/06/10 09:52:19;;;;;;;8.27;2.92;;;35.30;82.80;;;;;;4131430;28;20042;-68
2022/06/10 09:54:43;;;;;;;6.32;2.90;;;35.00;82.90;;;;;;4143089;28;20049;-69
2022/06/10 09:56:54;;;;;;;7.78;3.20;;;34.80;83.40;;;;;;4146941;28;20054;-69
2022/06/10 09:59:10;;;;;;;9.15;3.60;;;34.80;83.60;;;;;;4162729;28;20049;-70
2022/06/10 10:01:29;;;;;;;8.80;4.20;;;35.00;83.30;;;;;;4145943;28;20046;-69
2022/06/10 10:03:52;;;;;;;15.90;4.80;;;35.10;83.20;;;;;;4131888;28;20034;-70
2022/06/10 10:06:30;;;;;;;15.63;5.72;;;35.00;83.30;;;;;;4132070;28;20489;-69
2022/06/10 10:08:41;;;;;;;15.35;6.65;;;35.00;84.10;;;;;;4132020;28;20510;-69
2022/06/10 10:11:01;;;;;;;10.25;5.25;;;35.00;83.40;;;;;;4139595;28;20052;-69
2022/06/10 10:13:41;;;;;;;13.05;4.82;;;35.10;83.40;;;;;;4147379;28;20053;-69
2022/06/10 10:15:56;;;;;;;9.05;4.60;;;35.00;83.40;;;;;;4147105;28;20053;-70
2022/06/10 10:18:23;;;;;;;11.30;5.55;;;34.80;83.90;;;;;;4146641;28;20066;-70
2022/06/10 10:20:45;;;;;;;10.05;3.70;;;34.60;84.10;;;;;;4132103;28;20516;-69
2022/06/10 10:23:04;;;;;;;12.83;5.17;;;34.50;84.40;;;;;;4146619;28;20452;-71
2022/06/10 10:25:23;;;;;;;9.88;4.47;;;34.30;89.00;;;;;;4146151;28;20404;-67
2022/06/10 10:27:32;;;;;;;11.70;4.20;;;33.90;91.80;;;;;;4148155;28;20069;-68
2022/06/10 10:29:42;;;;;;;13.88;4.15;;;33.40;92.80;;;;;;4147789;28;20534;-67
2022/06/10 10:32:03;;;;;;;11.30;4.50;;;33.00;93.50;;;;;;4145827;28;20046;-67
2022/06/10 10:34:11;;;;;;;10.93;4.57;;;32.40;94.70;;;;;;4145816;28;20522;-67
2022/06/10 10:36:30;;;;;;;12.30;3.65;;;32.50;94.20;;;;;;4114988;28;20043;-67
2022/06/10 10:38:42;;;;;;;10.40;3.88;;;32.60;94.30;;;;;;4131525;28;20058;-66
2022/06/10 10:40:47;;;;;;;10.25;4.22;;;32.40;95.20;;;;;;4157292;28;20106;-65
2022/06/10 10:43:02;;;;;;;9.98;4.93;;;32.50;96.10;;;;;;4145197;28;20198;-66
2022/06/10 10:45:20;;;;;;;12.35;4.85;;;32.40;96.80;;;;;;4128228;28;20050;-67
2022/06/10 10:47:26;;;;;;;8.40;4.32;;;32.30;97.20;;;;;;4161569;28;20041;-65
2022/06/10 10:49:33;;;;;;;9.70;4.82;;;32.40;98.00;;;;;;4146200;28;20054;-65
2022/06/10 10:51:40;;;;;;;9.90;4.22;;;32.30;98.80;;;;;;4144834;28;20520;-64
2022/06/10 10:53:56;;;;;;;12.95;4.70;;;32.20;99.00;;;;;;4145485;28;20471;-65
2022/06/10 10:56:06;;;;;;;8.85;4.70;;;32.10;99.00;;;;;;4128970;28;20440;-65
2022/06/10 10:58:29;;;;;;;23.95;18.40;;;32.20;99.00;;;;;;4128090;28;20680;-66
2022/06/10 11:00:39;;;;;;;49.45;39.28;;;32.20;99.10;;;;;;4112227;28;20188;-65
2022/06/10 11:02:51;;;;;;;22.88;14.52;;;32.20;99.50;;;;;;4112532;28;20055;-65
2022/06/10 11:05:15;;;;;;;13.55;8.90;;;32.20;99.20;;;;;;4124804;28;20047;-65
2022/06/10 11:07:22;;;;;;;58.67;47.15;;;32.30;99.40;;;;;;4126344;28;20097;-66
2022/06/10 11:09:33;;;;;;;21.17;14.40;;;32.30;99.90;;;;;;4127350;28;20506;-66
2022/06/10 11:11:37;;;;;;;18.80;12.15;;;32.20;99.90;;;;;;4110459;28;20053;-66
2022/06/10 11:13:49;;;;;;;22.58;18.65;;;32.10;99.80;;;;;;4110919;28;20046;-66
2022/06/10 11:16:12;;;;;;;17.58;7.97;;;32.00;99.90;;;;;;4125756;28;20112;-67
2022/06/10 11:18:20;;;;;;;25.60;9.35;;;32.20;99.70;;;;;;4110905;28;20526;-66
2022/06/10 11:20:33;;;;;;;15.27;8.27;;;32.20;98.90;;;;;;4125916;28;20678;-66
2022/06/10 11:22:47;;;;;;;18.00;10.18;;;31.90;99.40;;;;;;4126213;28;20050;-66
2022/06/10 11:25:22;;;;;;;22.48;13.30;;;31.80;98.70;;;;;;4126169;28;20113;-65
2022/06/10 11:27:32;;;;;;;26.00;15.57;;;31.40;98.70;;;;;;4134838;28;20119;-65
2022/06/10 11:29:39;;;;;;;25.08;19.83;;;31.50;98.80;;;;;;4144449;28;20113;-65
2022/06/10 11:31:48;;;;;;;17.80;10.70;;;31.40;98.50;;;;;;4142995;28;20117;-67
2022/06/10 11:33:55;;;;;;;13.02;8.30;;;31.40;97.80;;;;;;4125121;28;20105;-65
2022/06/10 11:36:07;;;;;;;15.10;6.90;;;31.60;97.70;;;;;;4143002;28;20049;-66
2022/06/10 11:38:26;;;;;;;16.25;7.60;;;31.50;97.40;;;;;;4142795;28;20120;-68
2022/06/10 11:40:46;;;;;;;16.02;7.10;;;31.60;99.00;;;;;;4141820;28;20784;-66
2022/06/10 11:43:04;;;;;;;12.75;6.78;;;31.70;99.30;;;;;;4143761;28;20057;-66
2022/06/10 11:45:22;;;;;;;13.70;6.22;;;31.60;99.70;;;;;;4140876;28;20129;-65